createdAt,value
2023-07-12T00:02:02.999Z,61.25
2023-07-12T00:05:05.312Z,61.13
2023-07-12T00:08:16.233Z,60.93
2023-07-12T00:11:21.074Z,60.96
2023-07-12T00:14:22.656Z,60.81
2023-07-12T00:17:24.273Z,60.83
2023-07-12T00:20:33.546Z,60.92
2023-07-12T00:23:35.133Z,60.63
2023-07-12T00:26:37.883Z,60.81
2023-07-12T00:29:39.612Z,60.55
2023-07-12T00:32:41.609Z,60.69
2023-07-12T00:35:43.361Z,60.71
2023-07-12T00:38:45.075Z,60.59
2023-07-12T00:42:09.610Z,60.39
2023-07-12T00:45:13.232Z,60.62
2023-07-12T00:48:15.732Z,60.55
2023-07-12T00:51:30.886Z,60.91
2023-07-12T00:54:54.118Z,60.63
2023-07-12T00:57:55.849Z,60.78
2023-07-12T01:00:59.618Z,60.98
2023-07-12T01:04:03.640Z,61.35
2023-07-12T01:07:05.429Z,61.53
2023-07-12T01:10:08.794Z,61.39
2023-07-12T01:13:11.603Z,60.95
2023-07-12T01:16:17.893Z,61.38
2023-07-12T01:19:20.328Z,61.20
2023-07-12T01:22:22.015Z,61.08
2023-07-12T01:25:33.740Z,61.28
2023-07-12T01:28:35.352Z,60.99
2023-07-12T01:31:40.444Z,60.90
2023-07-12T01:34:42.161Z,60.97
2023-07-12T01:37:43.868Z,61.21
2023-07-12T01:40:45.443Z,61.24
2023-07-12T01:43:47.280Z,61.14
2023-07-12T01:46:49.070Z,61.08
2023-07-12T01:49:50.693Z,60.95
2023-07-12T01:52:52.313Z,61.33
2023-07-12T01:55:55.983Z,61.64
2023-07-12T01:58:57.669Z,61.55
2023-07-12T02:01:59.402Z,61.43
2023-07-12T02:05:01.213Z,61.49
2023-07-12T02:08:03.006Z,61.63
2023-07-12T02:11:04.775Z,61.83
2023-07-12T02:14:06.470Z,61.90
2023-07-12T02:17:09.316Z,62.01
2023-07-12T02:20:12.515Z,62.20
2023-07-12T02:23:14.433Z,62.37
2023-07-12T02:26:16.069Z,62.25
2023-07-12T02:29:17.888Z,62.34
2023-07-12T02:32:21.434Z,62.46
2023-07-12T02:35:28.317Z,62.24
2023-07-12T02:38:29.897Z,62.02
2023-07-12T02:41:31.578Z,62.30
2023-07-12T02:44:33.134Z,62.20
2023-07-12T02:47:35.371Z,61.88
2023-07-12T02:50:37.115Z,61.97
2023-07-12T02:53:40.430Z,61.73
2023-07-12T02:56:43.086Z,61.29
2023-07-12T02:59:44.737Z,61.50
2023-07-12T03:02:46.336Z,61.58
2023-07-12T03:05:47.983Z,61.89
2023-07-12T03:08:49.741Z,61.62
2023-07-12T03:11:51.389Z,61.21
2023-07-12T03:14:53.284Z,61.21
2023-07-12T03:17:54.948Z,61.27
2023-07-12T03:21:01.518Z,61.31
2023-07-12T03:24:03.481Z,61.76
2023-07-12T03:27:05.644Z,62.06
2023-07-12T03:30:07.906Z,61.19
2023-07-12T03:33:09.534Z,61.34
2023-07-12T03:36:11.343Z,61.28
2023-07-12T03:39:13.271Z,61.37
2023-07-12T03:42:14.920Z,61.44
2023-07-12T03:45:16.620Z,61.74
2023-07-12T03:48:18.562Z,62.12
2023-07-12T03:51:23.225Z,62.01
2023-07-12T03:54:24.925Z,62.44
2023-07-12T03:57:26.698Z,62.21
2023-07-12T04:00:28.442Z,62.40
2023-07-12T04:03:30.815Z,62.52
2023-07-12T04:06:33.175Z,62.76
2023-07-12T04:09:34.873Z,62.52
2023-07-12T04:12:36.681Z,62.76
2023-07-12T04:15:38.554Z,62.98
2023-07-12T04:18:40.267Z,62.64
2023-07-12T04:21:41.938Z,62.91
2023-07-12T04:24:48.288Z,63.20
2023-07-12T04:27:49.932Z,62.15
2023-07-12T04:30:51.696Z,62.27
2023-07-12T04:33:53.440Z,62.56
2023-07-12T04:36:55.045Z,62.31
2023-07-12T04:39:57.285Z,62.62
2023-07-12T04:42:58.974Z,62.65
2023-07-12T04:46:01.052Z,63.07
2023-07-12T04:49:02.595Z,62.87
2023-07-12T04:52:05.149Z,62.83
2023-07-12T04:55:21.821Z,63.29
2023-07-12T04:58:24.033Z,63.21
2023-07-12T05:01:25.808Z,63.70
2023-07-12T05:04:27.905Z,63.83
2023-07-12T05:07:31.814Z,63.82
2023-07-12T05:10:33.776Z,63.44
2023-07-12T05:13:35.417Z,63.51
2023-07-12T05:16:37.671Z,63.36
2023-07-12T05:19:39.327Z,62.61
2023-07-12T05:22:42.355Z,62.30
2023-07-12T05:25:54.600Z,63.02
2023-07-12T05:28:57.026Z,63.07
2023-07-12T05:31:58.712Z,63.08
2023-07-12T05:35:00.710Z,63.75
2023-07-12T05:38:03.152Z,63.04
2023-07-12T05:41:05.029Z,62.65
2023-07-12T05:44:06.710Z,62.38
2023-07-12T05:47:08.406Z,62.52
2023-07-12T05:50:12.736Z,62.25
2023-07-12T05:53:14.380Z,62.07
2023-07-12T05:56:16.005Z,62.09
2023-07-12T05:59:19.373Z,62.14
2023-07-12T06:02:21.221Z,62.23
2023-07-12T06:05:22.915Z,62.23
2023-07-12T06:08:25.960Z,62.75
2023-07-12T06:11:27.587Z,62.84
2023-07-12T06:14:29.327Z,63.37
2023-07-12T06:17:32.119Z,63.13
2023-07-12T06:20:33.888Z,63.28
2023-07-12T06:23:36.429Z,63.27
2023-07-12T06:26:38.082Z,63.60
2023-07-12T06:29:46.218Z,62.91
2023-07-12T06:32:47.900Z,63.58
2023-07-12T06:35:49.654Z,64.18
2023-07-12T06:38:51.352Z,63.57
2023-07-12T06:41:53.014Z,63.24
2023-07-12T06:44:54.735Z,62.95
2023-07-12T06:47:56.547Z,64.01
2023-07-12T06:50:58.730Z,63.57
2023-07-12T06:54:00.753Z,63.86
2023-07-12T06:57:02.654Z,63.63
2023-07-12T07:00:10.084Z,63.54
2023-07-12T07:03:14.432Z,63.53
2023-07-12T07:06:18.059Z,63.65
2023-07-12T07:09:20.075Z,62.96
2023-07-12T07:12:22.195Z,62.90
2023-07-12T07:15:23.985Z,63.79
2023-07-12T07:18:26.351Z,63.57
2023-07-12T07:21:28.012Z,63.76
2023-07-12T07:24:29.913Z,63.56
2023-07-12T07:27:31.788Z,63.86
2023-07-12T07:30:33.454Z,63.60
2023-07-12T07:33:38.209Z,62.56
2023-07-12T07:36:40.085Z,62.81
2023-07-12T07:39:42.189Z,61.35
2023-07-12T07:42:49.052Z,60.56
2023-07-12T07:45:53.677Z,60.04
2023-07-12T07:48:55.544Z,59.97
2023-07-12T07:51:57.395Z,59.45
2023-07-12T07:54:59.947Z,59.21
2023-07-12T07:58:02.189Z,58.86
2023-07-12T08:01:03.798Z,58.88
2023-07-12T08:04:09.774Z,59.17
2023-07-12T08:07:12.725Z,59.19
2023-07-12T08:10:17.982Z,59.26
2023-07-12T08:13:20.069Z,59.01
2023-07-12T08:16:21.831Z,58.73
2023-07-12T08:19:23.629Z,58.21
2023-07-12T08:22:25.790Z,58.45
2023-07-12T08:25:27.581Z,58.50
2023-07-12T08:28:29.313Z,58.44
2023-07-12T08:31:31.356Z,58.16
2023-07-12T08:34:33.223Z,57.74
2023-07-12T08:37:34.983Z,58.08
2023-07-12T08:40:41.906Z,57.76
2023-07-12T08:43:44.702Z,57.66
2023-07-12T08:46:56.409Z,58.05
2023-07-12T08:49:58.717Z,58.21
2023-07-12T08:53:00.824Z,57.84
2023-07-12T08:56:05.040Z,58.12
2023-07-12T08:59:14.043Z,58.33
2023-07-12T09:02:22.713Z,58.55
2023-07-12T09:05:25.377Z,58.91
2023-07-12T09:08:36.411Z,58.83
2023-07-12T09:11:39.872Z,58.94
2023-07-12T09:14:41.629Z,59.03
2023-07-12T09:17:45.482Z,59.25
2023-07-12T09:20:51.264Z,59.44
2023-07-12T09:23:59.606Z,59.45
2023-07-12T09:27:06.674Z,59.78
2023-07-12T09:30:08.803Z,60.05
2023-07-12T09:33:19.304Z,60.14
2023-07-12T09:36:28.253Z,60.27
2023-07-12T09:39:30.124Z,60.53
2023-07-12T09:42:31.955Z,60.37
2023-07-12T09:45:36.163Z,60.33
2023-07-12T09:48:52.843Z,60.47
2023-07-12T09:52:06.372Z,60.98
2023-07-12T09:55:24.317Z,61.24
2023-07-12T09:58:36.280Z,61.96
2023-07-12T10:01:49.448Z,62.32
2023-07-12T10:04:55.957Z,63.65
2023-07-12T10:08:15.594Z,63.80
2023-07-12T10:11:27.641Z,62.70
2023-07-12T10:14:37.422Z,61.86
2023-07-12T10:17:42.904Z,61.29
2023-07-12T10:20:46.617Z,60.46
2023-07-12T10:23:58.798Z,60.20
2023-07-12T10:27:05.091Z,60.44
2023-07-12T10:30:15.478Z,59.85
2023-07-12T10:33:28.091Z,58.14
2023-07-12T10:36:30.912Z,57.45
2023-07-12T10:39:33.112Z,55.34
2023-07-12T10:42:47.357Z,55.93
2023-07-12T10:45:51.972Z,55.03
2023-07-12T10:48:55.641Z,55.39
2023-07-12T10:52:11.833Z,54.60
2023-07-12T10:55:19.653Z,54.19
2023-07-12T10:58:22.776Z,54.23
2023-07-12T11:01:46.560Z,54.24
2023-07-12T11:04:49.824Z,53.72
2023-07-12T11:07:54.674Z,53.81
2023-07-12T11:10:59.943Z,54.00
2023-07-12T11:14:25.338Z,53.25
2023-07-12T11:17:29.605Z,53.80
2023-07-12T11:21:02.496Z,54.14
2023-07-12T11:24:26.550Z,53.90
2023-07-12T11:27:38.683Z,54.38
2023-07-12T11:30:44.349Z,54.04
2023-07-12T11:34:15.471Z,55.06
2023-07-12T11:37:25.804Z,55.11
2023-07-12T11:40:36.315Z,55.13
2023-07-12T11:43:38.544Z,55.82
2023-07-12T11:46:42.402Z,55.89
2023-07-12T11:49:45.712Z,56.13
2023-07-12T11:52:48.872Z,56.44
2023-07-12T11:55:50.937Z,56.14
2023-07-12T11:58:52.922Z,56.56
2023-07-12T12:01:54.704Z,56.52
2023-07-12T12:04:59.887Z,56.28
2023-07-12T12:08:07.003Z,56.47
2023-07-12T12:11:11.679Z,55.90
2023-07-12T12:14:24.704Z,56.66
2023-07-12T12:17:36.917Z,56.76
2023-07-12T12:20:51.515Z,56.84
2023-07-12T12:23:58.608Z,56.66
2023-07-12T12:27:11.732Z,57.37
2023-07-12T12:30:29.805Z,56.06
2023-07-12T12:33:31.663Z,55.25
2023-07-12T12:36:34.013Z,55.31
2023-07-12T12:39:36.931Z,55.49
2023-07-12T12:43:02.072Z,54.94
2023-07-12T12:53:29.343Z,55.92
2023-07-12T13:05:30.692Z,56.68
2023-07-12T13:18:12.467Z,57.08
2023-07-12T13:21:19.860Z,56.66
2023-07-12T13:24:21.835Z,57.22
2023-07-12T13:27:31.098Z,57.08
2023-07-12T13:30:38.480Z,57.33
2023-07-12T13:33:40.403Z,57.31
2023-07-12T13:36:45.678Z,56.77
2023-07-12T13:39:48.060Z,56.72
2023-07-12T13:42:57.986Z,56.46
2023-07-12T13:46:01.582Z,56.28
2023-07-12T13:49:03.953Z,56.01
2023-07-12T13:52:06.249Z,56.62
2023-07-12T13:55:13.741Z,56.45
2023-07-12T13:58:15.562Z,57.70
2023-07-12T14:04:23.832Z,56.44
2023-07-12T14:10:37.021Z,56.68
2023-07-12T14:13:38.725Z,57.08
2023-07-12T14:16:40.519Z,57.29
2023-07-12T14:19:44.577Z,56.82
2023-07-12T14:22:46.402Z,55.86
2023-07-12T14:25:48.056Z,55.57
2023-07-12T14:28:55.458Z,55.82
2023-07-12T14:31:58.365Z,55.81
2023-07-12T14:35:02.070Z,55.91
2023-07-12T14:38:10.045Z,55.48
2023-07-12T14:41:26.360Z,55.34
2023-07-12T14:44:27.995Z,55.75
2023-07-12T14:47:29.613Z,55.79
2023-07-12T14:50:31.290Z,55.92
2023-07-12T14:53:33.013Z,55.85
2023-07-12T14:56:34.604Z,55.71
2023-07-12T14:59:36.515Z,55.69
2023-07-12T15:02:39.809Z,55.66
2023-07-12T15:05:41.551Z,55.34
2023-07-12T15:08:45.906Z,55.26
2023-07-12T15:12:06.874Z,54.88
2023-07-12T15:15:13.170Z,54.47
2023-07-12T15:18:18.325Z,54.59
2023-07-12T15:21:30.937Z,54.73
2023-07-12T15:24:32.624Z,54.72
2023-07-12T15:27:37.415Z,54.73
2023-07-12T15:30:40.433Z,54.88
2023-07-12T15:33:42.141Z,55.05
2023-07-12T15:36:43.811Z,55.84
2023-07-12T15:39:45.822Z,55.46
2023-07-12T15:42:48.727Z,55.87
2023-07-12T15:45:50.951Z,55.99
2023-07-12T15:48:56.992Z,55.69
2023-07-12T15:51:58.694Z,55.55
2023-07-12T15:55:00.634Z,55.51
2023-07-12T15:58:02.423Z,55.39
2023-07-12T16:01:05.429Z,55.79
2023-07-12T16:04:07.421Z,55.19
2023-07-12T16:07:12.803Z,55.19
2023-07-12T16:10:15.219Z,55.51
2023-07-12T16:13:23.476Z,55.78
2023-07-12T16:16:28.564Z,55.50
2023-07-12T16:19:30.464Z,55.51
2023-07-12T16:22:32.225Z,55.48
2023-07-12T16:25:33.837Z,55.59
2023-07-12T16:28:36.195Z,55.64
2023-07-12T16:31:52.326Z,56.01
2023-07-12T16:34:54.029Z,56.55
2023-07-12T16:37:55.796Z,57.17
2023-07-12T16:41:05.290Z,57.39
2023-07-12T16:44:17.188Z,57.24
2023-07-12T16:47:18.881Z,57.59
2023-07-12T16:50:20.553Z,57.71
2023-07-12T16:53:42.568Z,57.96
2023-07-12T16:56:44.194Z,58.45
2023-07-12T16:59:51.046Z,58.82
2023-07-12T17:02:54.063Z,58.95
2023-07-12T17:05:57.234Z,58.82
2023-07-12T17:08:58.858Z,59.96
2023-07-12T17:12:00.573Z,61.32
2023-07-12T17:15:03.447Z,61.76
2023-07-12T17:18:05.187Z,62.30
2023-07-12T17:21:16.542Z,62.06
2023-07-12T17:24:18.586Z,62.30
2023-07-12T17:27:22.588Z,62.58
2023-07-12T17:30:24.256Z,62.27
2023-07-12T17:33:28.501Z,62.73
2023-07-12T17:36:30.506Z,63.94
2023-07-12T17:39:33.101Z,64.40
2023-07-12T17:42:35.292Z,64.33
2023-07-12T17:45:36.932Z,64.46
2023-07-12T17:48:40.299Z,64.20
2023-07-12T17:51:42.169Z,64.29
2023-07-12T17:54:44.728Z,64.77
2023-07-12T17:57:46.429Z,64.71
2023-07-12T18:00:53.055Z,65.18
2023-07-12T18:03:54.819Z,65.63
2023-07-12T18:06:57.511Z,66.24
2023-07-12T18:09:59.864Z,65.86
2023-07-12T18:13:01.625Z,66.29
2023-07-12T18:16:03.473Z,66.39
2023-07-12T18:19:05.706Z,66.71
2023-07-12T18:22:19.932Z,66.33
2023-07-12T18:25:23.492Z,66.19
2023-07-12T18:28:25.363Z,66.80
2023-07-12T18:31:30.306Z,67.24
2023-07-12T18:34:32.146Z,67.05
2023-07-12T18:37:34.221Z,67.80
2023-07-12T18:40:36.782Z,68.09
2023-07-12T18:43:39.466Z,68.16
2023-07-12T18:46:45.066Z,68.26
2023-07-12T18:49:52.407Z,68.09
2023-07-12T18:52:55.503Z,68.68
2023-07-12T18:55:57.250Z,68.72
2023-07-12T18:59:00.225Z,68.97
2023-07-12T19:02:02.314Z,69.54
2023-07-12T19:05:23.124Z,69.77
2023-07-12T19:08:24.859Z,69.79
2023-07-12T19:11:35.162Z,69.55
2023-07-12T19:14:37.651Z,69.34
2023-07-12T19:17:40.509Z,69.51
2023-07-12T19:20:42.300Z,69.31
2023-07-12T19:23:43.989Z,69.37
2023-07-12T19:26:45.731Z,69.51
2023-07-12T19:29:48.567Z,69.59
2023-07-12T19:32:50.493Z,69.78
2023-07-12T19:35:52.194Z,69.74
2023-07-12T19:38:55.847Z,69.49
2023-07-12T19:41:58.490Z,69.74
2023-07-12T19:45:00.199Z,69.89
2023-07-12T19:48:01.960Z,70.20
2023-07-12T19:51:14.214Z,70.16
2023-07-12T19:54:18.229Z,70.37
2023-07-12T19:57:20.629Z,70.58
2023-07-12T20:00:24.933Z,70.87
2023-07-12T20:03:26.617Z,71.33
2023-07-12T20:06:28.900Z,71.23
2023-07-12T20:09:30.491Z,71.16
2023-07-12T20:12:32.230Z,71.16
2023-07-12T20:15:33.933Z,71.47
2023-07-12T20:18:36.709Z,71.62
2023-07-12T20:21:39.371Z,71.72
2023-07-12T20:24:41.142Z,71.61
2023-07-12T20:27:42.829Z,71.80
2023-07-12T20:30:46.086Z,72.06
2023-07-12T20:33:47.789Z,71.95
2023-07-12T20:36:52.779Z,72.13
2023-07-12T20:39:54.427Z,72.07
2023-07-12T20:42:56.119Z,72.05
2023-07-12T20:46:00.057Z,72.17
2023-07-12T20:49:03.586Z,72.19
2023-07-12T20:52:08.622Z,72.25
2023-07-12T20:55:10.267Z,72.48
2023-07-12T20:58:11.873Z,72.72
2023-07-12T21:01:17.114Z,72.61
2023-07-12T21:04:18.855Z,72.89
2023-07-12T21:07:23.536Z,72.97
2023-07-12T21:10:25.266Z,72.96
2023-07-12T21:13:28.003Z,73.00
2023-07-12T21:16:30.034Z,72.74
2023-07-12T21:19:31.777Z,72.53
2023-07-12T21:22:33.574Z,72.15
2023-07-12T21:25:35.291Z,72.42
2023-07-12T21:28:37.379Z,72.87
2023-07-12T21:31:38.975Z,72.97
2023-07-12T21:34:40.743Z,72.79
2023-07-12T21:37:42.403Z,72.49
2023-07-12T21:40:44.356Z,72.98
2023-07-12T21:43:46.190Z,72.76
2023-07-12T21:46:47.856Z,72.85
2023-07-12T21:49:49.734Z,72.85
2023-07-12T21:52:51.522Z,73.36
2023-07-12T21:55:53.186Z,73.55
2023-07-12T21:58:57.209Z,73.78
2023-07-12T22:01:58.940Z,74.09
2023-07-12T22:05:01.557Z,74.28
2023-07-12T22:08:03.417Z,74.43
2023-07-12T22:11:09.757Z,74.66
2023-07-12T22:14:11.550Z,74.72
2023-07-12T22:17:14.436Z,74.81
2023-07-12T22:20:18.736Z,74.58
2023-07-12T22:23:20.469Z,74.80
2023-07-12T22:26:28.835Z,75.01
2023-07-12T22:29:30.588Z,75.17
2023-07-12T22:32:32.254Z,75.29
2023-07-12T22:35:34.514Z,75.40
2023-07-12T22:38:36.947Z,75.48
2023-07-12T22:41:38.652Z,75.66
2023-07-12T22:44:40.621Z,75.72
2023-07-12T22:47:43.574Z,75.87
2023-07-12T22:50:47.332Z,75.97
2023-07-12T22:53:50.036Z,76.04
2023-07-12T22:56:52.120Z,76.26
2023-07-12T22:59:53.988Z,76.31
2023-07-12T23:02:55.743Z,76.22
2023-07-12T23:05:58.259Z,76.07
2023-07-12T23:08:59.927Z,76.13
2023-07-12T23:12:07.589Z,76.15
2023-07-12T23:15:11.637Z,76.01
2023-07-12T23:18:13.488Z,75.94
2023-07-12T23:21:17.056Z,75.86
2023-07-12T23:24:19.137Z,75.71
2023-07-12T23:27:20.792Z,75.76
2023-07-12T23:30:24.040Z,75.77
2023-07-12T23:33:25.728Z,75.73
2023-07-12T23:36:28.427Z,75.64
2023-07-12T23:39:30.528Z,75.77
2023-07-12T23:42:32.094Z,75.85
2023-07-12T23:45:37.232Z,75.76
2023-07-12T23:48:38.916Z,75.78
2023-07-12T23:51:41.261Z,75.89
2023-07-12T23:54:44.766Z,76.01
2023-07-12T23:57:46.722Z,75.98
